Hovedside
METAR-TAF:

METAR-TAF

Lufthavner :

Svalbard lufthavn. Longyear

Longyearbyen, Norge

breddegrad: 78-15N, lengdegrad: 015-28E, høyde over havet: 2 m

Gjeldene værobservasjon

Denne rapporten ble laget for 31 minutter siden, klokken 15:20 UTC
Vind 3 kt fra skiftende retning
Temperatur -5°C
Luftfuktighet 79%
Trykk 1019 hPa
Sikt 10 km eller mer
Spredte skyer i en høyde av 1300 ft
Brutte skyer i en høyde av 2000 ft

METAR: ENSB 201520Z VRB03KT 9999 SCT013 BKN020 M05/M08 Q1019 RMK WIND 1400FT VRB03KT

Tid: 16:51 (15:51 UTC)

Varsel

Varsel gyldig fra 20. klokken 12 UTC til 21. klokken 12 UTC
Vind 8 kt fra Øst-sørøst
Sikt 10 km eller mer
Få skyer i en høyde av 1000 ft
Brutte skyer i en høyde av 2000 ft

TAF: ENSB 2012/2112 12008KT 9999 FEW010 BKN020

Værobservasjoner og værvarsel for over 4000 flyplasser (METAR- og TAF-rapporter).

Tilgjengelige stasjoner er representert av de røde og gule prikkene på kartet.

Hold musepekeren over prikken for å se navnet på stasjonen.

Klikk så for å se værobservasjoner og -varsler.

For å forandre kartet kan du klikke på den grønne knappen med svart kryss for å zoome inn, på den grønne knappen med strek for å zoome ut, eller på de grønne pilene for å se tilstøtende kart.


METAR-TAF: